Time;durP1;ratioP1;P1;durP2;ratioP2;P2;SDS_P1;SDS_P2;PMS_P1;PMS_P2;Temp;Humidity;BMP_temperature;BMP_pressure;BME280_temperature;BME280_humidity;BME280_pressure;Samples;Min_cycle;Max_cycle;Signal;HPM_P1;HPM_P2
2022/07/02 00:01:20;;;;;;;4.40;1.90;;;16.30;99.90;;;;;;5039650;28;20187;-78
2022/07/02 00:03:51;;;;;;;3.70;2.10;;;16.20;99.90;;;;;;5039507;28;20253;-77
2022/07/02 00:06:20;;;;;;;3.43;2.10;;;16.20;99.90;;;;;;5039427;28;20418;-78
2022/07/02 00:08:46;;;;;;;4.63;2.50;;;16.20;99.90;;;;;;5039842;28;20465;-77
2022/07/02 00:11:17;;;;;;;4.33;2.33;;;16.20;99.90;;;;;;5039714;28;20857;-78
2022/07/02 00:13:43;;;;;;;2.77;2.07;;;16.20;99.90;;;;;;5039224;28;20187;-77
2022/07/02 00:16:12;;;;;;;3.73;2.20;;;16.20;99.90;;;;;;5038990;28;20430;-77
2022/07/02 00:18:38;;;;;;;3.83;2.23;;;16.20;99.90;;;;;;5039344;28;20504;-78
2022/07/02 00:21:04;;;;;;;4.00;2.17;;;16.20;99.90;;;;;;5039022;28;20425;-77
2022/07/02 00:23:30;;;;;;;6.37;2.30;;;16.10;99.90;;;;;;5039067;28;20484;-77
2022/07/02 00:26:18;;;;;;;4.80;2.27;;;16.10;99.90;;;;;;5039010;28;20419;-77
2022/07/02 00:28:48;;;;;;;6.70;2.87;;;16.10;99.90;;;;;;5039217;28;20442;-78
2022/07/02 00:31:14;;;;;;;3.17;2.10;;;16.00;99.90;;;;;;5039083;28;20425;-78
2022/07/02 00:33:44;;;;;;;3.70;2.13;;;16.00;99.90;;;;;;5039419;28;20870;-78
2022/07/02 00:36:21;;;;;;;4.20;2.50;;;16.00;99.90;;;;;;5038915;28;20430;-78
2022/07/02 00:38:51;;;;;;;4.40;2.10;;;16.00;99.90;;;;;;5038570;28;20465;-78
2022/07/02 00:41:18;;;;;;;6.50;2.07;;;16.00;99.90;;;;;;5031643;28;20443;-78
2022/07/02 00:43:46;;;;;;;10.20;2.43;;;16.00;99.90;;;;;;5012845;28;20520;-78
2022/07/02 00:46:14;;;;;;;4.10;2.63;;;15.90;99.90;;;;;;5018387;28;20457;-77
2022/07/02 00:48:40;;;;;;;3.63;2.20;;;15.80;99.90;;;;;;5026376;28;20443;-77
2022/07/02 00:51:06;;;;;;;25.10;3.30;;;15.80;99.90;;;;;;5018678;28;20481;-78
2022/07/02 00:53:32;;;;;;;3.63;2.03;;;15.80;99.90;;;;;;5044546;23;20513;-79
2022/07/02 00:55:58;;;;;;;3.37;2.30;;;15.80;99.90;;;;;;5051092;28;20191;-80
2022/07/02 00:58:25;;;;;;;3.57;2.30;;;15.80;99.90;;;;;;5051975;28;20258;-80
2022/07/02 01:00:51;;;;;;;3.40;2.07;;;15.80;99.90;;;;;;5052215;28;20888;-79
2022/07/02 01:03:21;;;;;;;3.63;2.20;;;15.80;99.90;;;;;;5051999;28;20490;-80
2022/07/02 01:05:48;;;;;;;7.07;2.77;;;15.70;99.90;;;;;;5034234;28;20556;-77
2022/07/02 01:11:01;;;;;;;4.97;2.33;;;15.60;99.90;;;;;;5051867;28;21127;-78
2022/07/02 01:13:31;;;;;;;3.90;2.30;;;15.60;99.90;;;;;;5051770;28;20438;-78
2022/07/02 01:15:56;;;;;;;3.40;2.20;;;15.60;99.90;;;;;;5050435;28;20422;-77
2022/07/02 01:18:22;;;;;;;4.90;3.07;;;15.50;99.90;;;;;;5051864;28;20429;-77
2022/07/02 01:20:48;;;;;;;4.30;2.43;;;15.50;99.90;;;;;;5051747;28;20253;-77
2022/07/02 01:23:13;;;;;;;4.33;2.73;;;15.50;99.90;;;;;;5051552;28;20219;-77
2022/07/02 01:25:39;;;;;;;4.60;2.43;;;15.50;99.90;;;;;;5051561;28;20187;-77
2022/07/02 01:28:04;;;;;;;3.87;2.80;;;15.50;99.90;;;;;;5050535;28;20253;-77
2022/07/02 01:30:30;;;;;;;4.03;2.30;;;15.50;99.90;;;;;;5051742;28;20255;-77
2022/07/02 01:32:56;;;;;;;3.67;2.40;;;15.50;99.90;;;;;;5051548;28;20202;-77
2022/07/02 01:35:22;;;;;;;3.40;2.27;;;15.50;99.90;;;;;;5052237;28;20489;-78
2022/07/02 01:37:49;;;;;;;3.80;2.23;;;15.50;99.90;;;;;;5052167;28;20263;-78
2022/07/02 01:40:15;;;;;;;3.03;2.00;;;15.50;99.90;;;;;;5050881;28;20178;-78
2022/07/02 01:42:40;;;;;;;4.00;2.63;;;15.40;99.90;;;;;;5052068;28;20892;-78
2022/07/02 01:45:07;;;;;;;4.20;2.20;;;15.40;99.90;;;;;;5052281;28;20681;-78
2022/07/02 01:47:32;;;;;;;3.30;2.03;;;15.40;99.90;;;;;;5033907;28;20184;-77
2022/07/02 01:49:58;;;;;;;3.37;2.50;;;15.40;99.90;;;;;;5051988;28;20416;-78
2022/07/02 01:52:26;;;;;;;3.80;2.27;;;15.30;99.90;;;;;;5036550;28;20180;-78
2022/07/02 01:54:51;;;;;;;2.90;2.00;;;15.40;99.90;;;;;;5038394;28;20242;-78
2022/07/02 01:57:17;;;;;;;6.03;2.30;;;15.40;99.90;;;;;;5056678;28;20814;-78
2022/07/02 01:59:42;;;;;;;5.00;2.60;;;15.30;99.90;;;;;;5058370;28;20220;-79
2022/07/02 02:02:08;;;;;;;4.30;2.33;;;15.30;99.90;;;;;;5057654;28;20305;-79
2022/07/02 02:04:34;;;;;;;4.40;2.67;;;15.30;99.90;;;;;;5056632;28;20211;-79
2022/07/02 02:07:03;;;;;;;4.63;2.10;;;15.30;99.90;;;;;;5057249;28;20174;-79
2022/07/02 02:09:29;;;;;;;4.07;2.60;;;15.20;99.90;;;;;;5057729;28;20416;-78
2022/07/02 02:11:55;;;;;;;5.37;2.73;;;15.20;99.90;;;;;;5057428;28;20418;-78
2022/07/02 02:14:20;;;;;;;4.50;2.20;;;15.10;99.90;;;;;;5057100;28;20192;-78
2022/07/02 02:16:46;;;;;;;3.00;2.03;;;15.10;99.90;;;;;;5057290;28;20183;-78
2022/07/02 02:19:11;;;;;;;2.90;2.17;;;15.10;99.90;;;;;;5057172;28;20182;-78
2022/07/02 02:21:37;;;;;;;3.80;2.20;;;15.00;99.90;;;;;;5039370;28;20175;-78
2022/07/02 02:24:03;;;;;;;3.57;2.47;;;14.90;99.90;;;;;;5056642;28;20805;-78
2022/07/02 02:26:29;;;;;;;4.57;2.60;;;14.70;99.90;;;;;;5056593;28;20176;-78
2022/07/02 02:28:55;;;;;;;4.97;2.77;;;14.70;99.90;;;;;;5038819;28;20940;-79
2022/07/02 02:31:23;;;;;;;4.63;2.37;;;14.60;99.90;;;;;;5057051;28;20714;-78
2022/07/02 02:33:49;;;;;;;4.17;2.30;;;14.60;99.90;;;;;;5056888;28;20452;-78
2022/07/02 02:36:15;;;;;;;3.53;2.43;;;14.70;99.90;;;;;;5056085;28;20725;-78
2022/07/02 02:38:40;;;;;;;3.90;2.37;;;14.60;99.90;;;;;;5057168;28;20416;-78
2022/07/02 02:41:07;;;;;;;3.57;2.20;;;14.50;99.90;;;;;;5058182;28;20171;-78
2022/07/02 02:43:34;;;;;;;6.40;2.40;;;14.50;99.90;;;;;;5057820;28;20741;-78
2022/07/02 02:46:00;;;;;;;4.07;2.40;;;14.50;99.90;;;;;;5057678;28;20406;-79
2022/07/02 02:48:26;;;;;;;3.53;2.30;;;14.40;99.90;;;;;;5057405;28;20406;-79
2022/07/02 02:50:52;;;;;;;4.60;1.97;;;14.50;99.90;;;;;;5057667;28;20410;-78
2022/07/02 02:53:18;;;;;;;3.43;2.10;;;14.50;99.90;;;;;;5056837;28;20515;-79
2022/07/02 02:55:43;;;;;;;5.27;2.37;;;14.50;99.90;;;;;;5055379;28;20176;-77
2022/07/02 02:58:09;;;;;;;3.47;2.40;;;14.60;99.90;;;;;;5055648;28;20452;-77
2022/07/02 03:00:34;;;;;;;4.73;2.23;;;14.60;99.90;;;;;;5055214;28;20229;-78
2022/07/02 03:03:00;;;;;;;4.97;2.63;;;14.50;99.90;;;;;;5055523;28;20208;-78
2022/07/02 03:05:26;;;;;;;4.20;2.20;;;14.50;99.90;;;;;;5055387;28;20681;-78
2022/07/02 03:07:52;;;;;;;3.63;1.70;;;14.50;99.90;;;;;;5055045;28;20677;-77
2022/07/02 03:10:18;;;;;;;3.30;1.87;;;14.60;99.90;;;;;;5055416;28;20540;-77
2022/07/02 03:12:43;;;;;;;4.13;2.83;;;14.60;99.90;;;;;;5054821;28;20504;-77
2022/07/02 03:15:09;;;;;;;3.57;2.13;;;14.60;99.90;;;;;;5054347;28;20215;-77
2022/07/02 03:17:35;;;;;;;3.23;2.00;;;14.70;99.90;;;;;;5053755;28;20226;-77
2022/07/02 03:20:01;;;;;;;6.20;2.30;;;14.70;99.90;;;;;;5053950;28;20708;-77
2022/07/02 03:22:26;;;;;;;4.20;2.20;;;14.70;99.90;;;;;;5054060;28;20238;-77
2022/07/02 03:24:52;;;;;;;3.33;1.50;;;14.60;99.90;;;;;;5054374;28;20988;-77
2022/07/02 03:27:17;;;;;;;3.80;2.13;;;14.70;99.90;;;;;;5054410;28;20208;-78
2022/07/02 03:29:43;;;;;;;3.23;2.10;;;14.70;99.90;;;;;;5054506;28;20219;-77
2022/07/02 03:32:09;;;;;;;3.60;2.40;;;14.70;99.90;;;;;;5054602;28;20183;-78
2022/07/02 03:34:34;;;;;;;4.00;2.50;;;14.70;99.90;;;;;;5054100;28;20196;-78
2022/07/02 03:37:00;;;;;;;7.33;3.60;;;14.70;99.90;;;;;;5053883;28;20228;-78
2022/07/02 03:39:25;;;;;;;3.57;2.17;;;14.70;99.90;;;;;;5054165;28;20191;-77
2022/07/02 03:41:51;;;;;;;3.43;2.30;;;14.70;99.90;;;;;;5054345;28;20172;-78
2022/07/02 03:44:17;;;;;;;3.23;2.00;;;14.70;99.90;;;;;;5054170;28;20215;-78
2022/07/02 03:46:42;;;;;;;3.07;2.00;;;14.80;99.90;;;;;;5053946;28;20175;-78
2022/07/02 03:49:08;;;;;;;5.47;2.10;;;14.80;99.90;;;;;;5054771;28;20539;-78
2022/07/02 03:51:34;;;;;;;4.20;2.37;;;14.70;99.90;;;;;;5054331;28;20547;-78
2022/07/02 03:53:59;;;;;;;4.20;2.40;;;14.70;99.90;;;;;;5054412;28;20468;-78
2022/07/02 03:56:25;;;;;;;5.23;2.33;;;14.60;99.90;;;;;;5053807;28;20190;-78
2022/07/02 03:58:51;;;;;;;3.63;2.40;;;14.60;99.90;;;;;;5054285;28;20186;-79
2022/07/02 04:01:16;;;;;;;3.43;2.10;;;14.60;99.90;;;;;;5053994;28;20274;-78
2022/07/02 04:03:42;;;;;;;3.87;2.30;;;14.60;99.90;;;;;;5054608;28;20223;-78
2022/07/02 04:06:07;;;;;;;4.77;2.90;;;14.60;99.90;;;;;;5054180;28;20188;-78
2022/07/02 04:08:33;;;;;;;4.73;2.83;;;14.70;99.90;;;;;;5054449;28;20214;-78
2022/07/02 04:10:58;;;;;;;3.97;2.10;;;14.70;99.90;;;;;;5053970;28;20214;-78
2022/07/02 04:13:24;;;;;;;9.83;1.97;;;14.70;99.90;;;;;;5054199;28;20706;-78
2022/07/02 04:15:50;;;;;;;3.60;2.30;;;14.80;99.90;;;;;;5053936;28;20184;-79
2022/07/02 04:18:15;;;;;;;3.70;2.30;;;14.90;99.90;;;;;;5053604;28;20206;-78
2022/07/02 04:20:41;;;;;;;4.40;1.80;;;14.90;99.90;;;;;;5054269;28;20211;-78
2022/07/02 04:23:07;;;;;;;3.73;2.17;;;14.90;99.90;;;;;;5054002;28;20253;-78
2022/07/02 04:25:32;;;;;;;5.80;2.20;;;15.00;99.90;;;;;;5053553;28;20172;-79
2022/07/02 04:27:58;;;;;;;5.77;2.30;;;15.00;99.90;;;;;;5053154;28;20375;-79
2022/07/02 04:30:23;;;;;;;3.83;2.20;;;15.10;99.90;;;;;;5052114;28;20179;-78
2022/07/02 04:32:49;;;;;;;4.17;2.60;;;15.10;99.90;;;;;;5053388;28;20183;-78
2022/07/02 04:35:15;;;;;;;3.23;2.20;;;15.10;99.90;;;;;;5053372;28;20186;-78
2022/07/02 04:37:41;;;;;;;3.93;2.40;;;15.20;99.90;;;;;;5034919;28;20425;-79
2022/07/02 04:40:07;;;;;;;3.83;2.47;;;15.30;99.90;;;;;;5051815;28;20183;-78
2022/07/02 04:42:32;;;;;;;7.10;2.30;;;15.30;99.90;;;;;;5053186;28;20689;-78
2022/07/02 04:44:58;;;;;;;6.53;2.77;;;15.30;99.90;;;;;;5053231;28;20407;-79
2022/07/02 04:47:24;;;;;;;3.70;2.10;;;15.40;99.90;;;;;;5052994;28;20180;-78
2022/07/02 04:49:49;;;;;;;8.13;2.70;;;15.50;99.90;;;;;;5053098;28;20654;-78
2022/07/02 04:52:15;;;;;;;3.63;2.30;;;15.50;99.90;;;;;;5053164;28;20175;-78
2022/07/02 04:54:41;;;;;;;3.90;2.40;;;15.50;99.90;;;;;;5052703;28;20206;-78
2022/07/02 04:57:07;;;;;;;3.70;2.40;;;15.60;99.90;;;;;;5050897;28;20426;-78
2022/07/02 04:59:33;;;;;;;4.20;1.87;;;15.70;99.90;;;;;;5052312;28;20513;-78
2022/07/02 05:01:59;;;;;;;3.43;2.10;;;15.70;99.90;;;;;;5052980;28;20413;-78
2022/07/02 05:04:24;;;;;;;4.03;2.13;;;15.80;99.90;;;;;;5034916;28;20215;-78
2022/07/02 05:06:50;;;;;;;3.20;2.03;;;15.80;99.90;;;;;;5052527;28;20251;-78
2022/07/02 05:09:15;;;;;;;4.20;2.60;;;15.90;99.90;;;;;;5052360;28;20229;-78
2022/07/02 05:11:41;;;;;;;4.90;2.33;;;16.00;99.90;;;;;;5052605;28;20172;-80
2022/07/02 05:14:07;;;;;;;3.87;2.20;;;16.00;99.90;;;;;;5052647;28;20195;-80
2022/07/02 05:16:32;;;;;;;3.33;2.83;;;16.10;99.90;;;;;;5052223;28;20176;-80
2022/07/02 05:18:58;;;;;;;4.50;2.10;;;16.10;99.90;;;;;;5053249;28;20195;-81
2022/07/02 05:21:23;;;;;;;5.03;2.30;;;16.10;99.90;;;;;;5052842;28;20618;-80
2022/07/02 05:23:49;;;;;;;5.07;2.10;;;16.20;99.90;;;;;;5051143;28;20212;-80
2022/07/02 05:26:15;;;;;;;6.00;2.77;;;16.30;99.90;;;;;;5052748;28;20243;-80
2022/07/02 05:28:40;;;;;;;4.30;2.53;;;16.30;99.90;;;;;;5053681;28;20206;-80
2022/07/02 05:31:06;;;;;;;5.83;2.50;;;16.40;99.90;;;;;;5053865;28;20167;-80
2022/07/02 05:33:31;;;;;;;3.87;2.90;;;16.40;99.90;;;;;;5052773;28;20195;-81
2022/07/02 05:35:57;;;;;;;3.73;2.57;;;16.40;99.90;;;;;;5053365;28;20257;-80
2022/07/02 05:38:22;;;;;;;4.57;2.70;;;16.50;99.90;;;;;;5053112;28;20176;-81
2022/07/02 05:40:48;;;;;;;4.13;2.43;;;16.60;99.90;;;;;;5053425;28;20698;-80
2022/07/02 05:43:14;;;;;;;4.27;2.50;;;16.70;99.90;;;;;;5053057;28;20211;-80
2022/07/02 05:45:39;;;;;;;3.33;2.43;;;16.70;99.90;;;;;;5052545;28;20183;-80
2022/07/02 05:48:06;;;;;;;4.40;3.07;;;16.80;99.90;;;;;;5052663;28;20184;-80
2022/07/02 05:50:31;;;;;;;3.90;2.43;;;16.90;99.90;;;;;;5053081;28;20578;-80
2022/07/02 05:52:57;;;;;;;3.37;1.90;;;17.00;99.90;;;;;;5052644;28;20438;-80
2022/07/02 05:55:23;;;;;;;4.07;2.47;;;17.00;99.90;;;;;;5053325;28;20631;-80
2022/07/02 05:57:48;;;;;;;4.40;2.40;;;17.20;99.90;;;;;;5053326;28;20229;-80
2022/07/02 06:00:14;;;;;;;5.87;2.40;;;17.20;99.90;;;;;;5053365;28;20183;-80
2022/07/02 06:02:40;;;;;;;4.53;2.37;;;17.30;99.90;;;;;;5053610;28;20580;-80
2022/07/02 06:07:51;;;;;;;4.67;2.57;;;17.50;99.90;;;;;;5053101;28;20233;-80
2022/07/02 06:10:19;;;;;;;4.47;2.33;;;17.60;99.90;;;;;;5053425;28;20409;-80
2022/07/02 06:12:47;;;;;;;4.97;2.30;;;17.70;99.90;;;;;;5053572;28;20958;-80
2022/07/02 06:15:13;;;;;;;7.77;3.27;;;17.90;99.90;;;;;;5052396;28;20794;-80
2022/07/02 06:17:38;;;;;;;3.93;2.23;;;18.00;99.90;;;;;;5052230;28;20410;-78
2022/07/02 06:20:04;;;;;;;4.00;2.37;;;18.10;99.90;;;;;;5051808;28;20263;-77
2022/07/02 06:22:30;;;;;;;3.90;1.90;;;18.20;99.90;;;;;;5051436;28;20199;-77
2022/07/02 06:24:55;;;;;;;4.80;2.87;;;18.30;99.90;;;;;;5051239;28;20504;-77
2022/07/02 06:27:21;;;;;;;3.80;2.23;;;18.40;99.90;;;;;;5051109;28;20176;-77
2022/07/02 06:29:48;;;;;;;5.70;2.20;;;18.40;99.90;;;;;;5051822;28;20703;-78
2022/07/02 06:32:15;;;;;;;6.30;3.70;;;18.60;99.90;;;;;;5051324;28;20414;-77
2022/07/02 06:34:41;;;;;;;3.63;2.00;;;18.60;99.90;;;;;;5051388;28;20438;-77
2022/07/02 06:37:07;;;;;;;3.10;2.00;;;18.70;99.90;;;;;;5050734;28;20421;-78
2022/07/02 06:39:33;;;;;;;4.43;2.63;;;18.70;99.90;;;;;;5053361;28;20415;-77
2022/07/02 06:44:42;;;;;;;5.07;2.00;;;19.00;99.90;;;;;;5045195;28;20222;-77
2022/07/02 06:47:08;;;;;;;4.30;2.10;;;19.10;99.90;;;;;;5053603;28;20398;-77
2022/07/02 06:49:33;;;;;;;7.37;1.73;;;19.20;99.90;;;;;;5054779;28;20254;-77
2022/07/02 06:51:59;;;;;;;2.83;2.00;;;19.20;99.90;;;;;;5054189;28;20176;-77
2022/07/02 06:54:25;;;;;;;10.97;2.40;;;19.40;99.90;;;;;;5060103;22;20282;-87
2022/07/02 06:56:51;;;;;;;4.50;2.20;;;19.40;99.90;;;;;;5041213;28;20196;-85
2022/07/02 06:59:17;;;;;;;4.60;2.20;;;19.60;99.90;;;;;;5051341;28;20440;-87
2022/07/02 07:01:42;;;;;;;3.60;1.90;;;19.60;99.90;;;;;;5059792;28;20207;-89
2022/07/02 07:04:08;;;;;;;4.53;2.50;;;19.80;99.90;;;;;;5062665;28;20212;-86
2022/07/02 07:06:55;;;;;;;4.20;1.93;;;19.90;99.90;;;;;;5030092;28;20185;-87
2022/07/02 07:09:20;;;;;;;4.60;2.20;;;19.90;99.90;;;;;;5031640;28;20208;-86
2022/07/02 07:11:46;;;;;;;3.33;1.87;;;20.00;99.90;;;;;;5031806;28;20424;-87
2022/07/02 07:14:11;;;;;;;5.57;2.30;;;20.10;99.90;;;;;;5031484;28;20208;-87
2022/07/02 07:16:37;;;;;;;3.30;2.13;;;20.20;99.90;;;;;;5028721;28;20189;-86
2022/07/02 07:19:06;;;;;;;6.13;1.77;;;20.30;99.90;;;;;;5030302;28;20199;-85
2022/07/02 07:21:32;;;;;;;3.33;1.80;;;20.30;99.90;;;;;;5030391;28;20416;-87
2022/07/02 07:23:58;;;;;;;5.40;2.43;;;20.40;99.90;;;;;;5032150;28;20926;-88
2022/07/02 07:26:23;;;;;;;2.50;1.47;;;20.40;99.90;;;;;;5029096;28;20424;-85
2022/07/02 07:28:49;;;;;;;3.33;1.70;;;20.40;99.90;;;;;;5031828;28;20188;-86
2022/07/02 07:31:20;;;;;;;3.83;1.83;;;20.40;99.90;;;;;;5028623;28;20609;-85
2022/07/02 07:33:46;;;;;;;2.77;2.13;;;20.50;99.90;;;;;;5028976;28;20199;-86
2022/07/02 07:36:12;;;;;;;4.10;1.90;;;20.60;99.90;;;;;;5029181;28;20420;-86
2022/07/02 07:38:39;;;;;;;3.27;1.50;;;20.70;99.90;;;;;;5029396;28;20424;-86
2022/07/02 07:41:04;;;;;;;4.27;1.73;;;20.90;99.90;;;;;;5029728;28;20181;-86
2022/07/02 07:43:30;;;;;;;3.10;1.73;;;21.10;99.90;;;;;;5028944;28;20470;-87
2022/07/02 07:45:56;;;;;;;3.07;1.30;;;21.10;99.90;;;;;;5025590;28;20412;-85
2022/07/02 07:48:21;;;;;;;2.43;1.20;;;21.30;99.90;;;;;;5028022;28;20177;-86
2022/07/02 07:50:47;;;;;;;5.57;1.53;;;21.40;99.90;;;;;;5029868;28;20219;-87
2022/07/02 07:53:13;;;;;;;3.03;1.40;;;21.50;99.90;;;;;;5028970;28;20196;-87
2022/07/02 07:55:39;;;;;;;3.37;1.70;;;21.60;99.90;;;;;;5027408;28;20236;-86
2022/07/02 07:58:05;;;;;;;2.97;1.57;;;21.80;99.90;;;;;;5027213;28;20204;-86
2022/07/02 08:00:31;;;;;;;4.00;1.53;;;21.90;99.90;;;;;;5027748;28;20416;-88
2022/07/02 08:02:56;;;;;;;3.20;1.57;;;22.10;99.90;;;;;;5027944;28;20270;-86
2022/07/02 08:05:22;;;;;;;4.50;1.50;;;22.20;99.90;;;;;;5028056;28;20448;-86
2022/07/02 08:07:48;;;;;;;3.00;1.30;;;22.30;99.90;;;;;;5028148;28;20181;-86
2022/07/02 08:10:14;;;;;;;3.27;1.37;;;22.40;99.90;;;;;;5014773;28;20221;-86
2022/07/02 08:12:43;;;;;;;2.73;1.17;;;22.60;99.90;;;;;;4997896;28;20189;-86
2022/07/02 08:15:09;;;;;;;3.10;1.00;;;22.80;99.90;;;;;;4980347;28;20708;-87
2022/07/02 08:17:35;;;;;;;2.60;1.37;;;23.80;99.90;;;;;;4983685;28;20436;-86
2022/07/02 08:20:08;;;;;;;2.10;0.93;;;25.10;99.90;;;;;;4986382;28;20511;-89
2022/07/02 08:22:38;;;;;;;2.10;1.00;;;26.20;99.90;;;;;;5005443;28;20457;-88
2022/07/02 08:25:06;;;;;;;4.80;1.10;;;27.50;94.70;;;;;;5003231;28;20440;-87
2022/07/02 08:27:32;;;;;;;3.73;1.50;;;27.80;94.00;;;;;;5016095;28;20424;-88
2022/07/02 08:29:58;;;;;;;4.10;1.03;;;28.70;92.70;;;;;;5010203;28;20654;-88
2022/07/02 08:32:25;;;;;;;3.03;1.07;;;29.50;85.00;;;;;;5030730;28;20404;-89
2022/07/02 08:34:51;;;;;;;2.73;1.20;;;29.80;79.10;;;;;;5012885;28;20436;-89
2022/07/02 08:37:17;;;;;;;3.20;1.47;;;30.50;73.20;;;;;;5016806;28;20431;-87
2022/07/02 08:39:42;;;;;;;2.70;1.20;;;31.30;71.00;;;;;;5015807;28;20428;-87
2022/07/02 08:42:26;;;;;;;4.13;1.37;;;31.70;65.10;;;;;;5014684;28;20177;-87
2022/07/02 08:44:59;;;;;;;2.30;1.07;;;31.70;59.30;;;;;;5026569;28;20419;-88
2022/07/02 08:47:26;;;;;;;2.70;1.10;;;32.30;58.60;;;;;;5016521;28;20406;-87
2022/07/02 08:49:54;;;;;;;3.03;1.10;;;33.30;56.00;;;;;;5015251;28;20423;-88
2022/07/02 08:52:21;;;;;;;2.60;1.27;;;34.00;52.30;;;;;;5014626;28;20424;-88
2022/07/02 08:54:47;;;;;;;2.90;1.00;;;33.90;50.50;;;;;;5014377;28;20471;-88
2022/07/02 08:57:14;;;;;;;2.70;1.17;;;34.20;48.70;;;;;;5004181;28;20447;-89
2022/07/02 08:59:41;;;;;;;3.37;1.27;;;34.80;49.30;;;;;;5001236;28;20921;-89
2022/07/02 09:02:07;;;;;;;2.87;1.20;;;35.70;48.40;;;;;;5012477;28;20424;-89
2022/07/02 09:04:34;;;;;;;2.70;1.20;;;36.00;44.40;;;;;;5003137;28;20455;-89
2022/07/02 09:07:03;;;;;;;2.73;1.13;;;37.20;41.00;;;;;;5001150;28;20443;-86
2022/07/02 09:09:29;;;;;;;2.20;0.90;;;37.10;40.80;;;;;;5013894;28;20486;-88
2022/07/02 09:11:56;;;;;;;2.50;1.07;;;37.30;39.50;;;;;;5012495;28;20428;-88
2022/07/02 09:14:22;;;;;;;2.10;1.07;;;37.90;39.10;;;;;;5028111;28;20474;-90
2022/07/02 09:16:48;;;;;;;2.27;0.90;;;38.30;38.40;;;;;;4997474;28;20924;-89
2022/07/02 09:19:15;;;;;;;2.20;1.10;;;37.50;38.90;;;;;;4997569;28;20575;-89
2022/07/02 09:21:51;;;;;;;2.70;1.27;;;37.40;38.40;;;;;;4998476;28;20432;-89
2022/07/02 09:24:28;;;;;;;3.37;1.43;;;37.00;37.80;;;;;;4998203;28;20482;-90
2022/07/02 09:27:10;;;;;;;3.70;1.17;;;35.30;37.70;;;;;;5012583;28;20423;-90
2022/07/02 09:29:56;;;;;;;6.73;1.37;;;35.80;40.60;;;;;;4997584;28;20522;-89
2022/07/02 09:32:22;;;;;;;2.27;0.90;;;36.20;38.60;;;;;;5004714;28;20427;-90
2022/07/02 09:34:50;;;;;;;2.10;1.00;;;37.30;37.20;;;;;;5012496;28;20452;-90
2022/07/02 09:37:21;;;;;;;5.63;2.00;;;37.80;36.50;;;;;;5015583;28;20636;-90
2022/07/02 09:39:48;;;;;;;6.73;1.27;;;36.50;37.10;;;;;;5017692;28;20439;-89
2022/07/02 09:42:33;;;;;;;7.23;1.07;;;37.40;37.40;;;;;;5012312;28;20792;-90
2022/07/02 09:45:02;;;;;;;5.03;1.20;;;38.80;35.50;;;;;;5016297;28;21141;-88
2022/07/02 09:47:40;;;;;;;3.10;1.50;;;39.50;34.70;;;;;;5014488;28;20431;-90
2022/07/02 09:50:08;;;;;;;2.20;1.03;;;38.80;33.60;;;;;;5016638;28;20431;-89
2022/07/02 09:52:35;;;;;;;2.17;1.00;;;38.10;34.00;;;;;;5021279;28;20927;-88
2022/07/02 09:55:01;;;;;;;2.50;1.03;;;38.70;34.70;;;;;;5019871;28;20464;-88
2022/07/02 09:57:28;;;;;;;4.63;1.20;;;39.90;34.30;;;;;;5019465;28;20431;-88
2022/07/02 09:59:54;;;;;;;3.03;1.10;;;38.90;31.80;;;;;;5019351;28;20503;-91
2022/07/02 10:02:25;;;;;;;3.10;1.00;;;36.60;33.70;;;;;;5024870;28;20429;-88
2022/07/02 10:04:52;;;;;;;5.50;1.20;;;34.20;35.80;;;;;;5023230;28;20193;-87
2022/07/02 10:07:23;;;;;;;2.27;1.10;;;33.30;37.80;;;;;;5023761;28;20483;-90
2022/07/02 10:09:52;;;;;;;2.63;1.00;;;32.70;39.30;;;;;;5022239;28;20432;-89
2022/07/02 10:12:19;;;;;;;2.87;1.00;;;31.60;39.00;;;;;;5009520;28;20519;-88
2022/07/02 10:14:46;;;;;;;2.47;1.00;;;31.30;39.50;;;;;;5002297;28;20494;-89
2022/07/02 10:17:13;;;;;;;2.23;1.17;;;31.20;41.60;;;;;;5007669;28;20442;-89
2022/07/02 10:19:39;;;;;;;2.60;1.10;;;32.00;45.50;;;;;;5029670;28;20419;-89
2022/07/02 10:22:06;;;;;;;2.50;0.90;;;34.40;40.10;;;;;;5023947;28;20449;-89
2022/07/02 10:24:33;;;;;;;3.27;1.03;;;36.30;40.80;;;;;;5022167;28;20204;-89
2022/07/02 10:27:00;;;;;;;3.30;1.00;;;38.00;38.70;;;;;;5024125;28;20427;-89
2022/07/02 10:29:27;;;;;;;2.43;1.07;;;39.30;37.90;;;;;;5022132;28;20429;-85
2022/07/02 10:32:22;;;;;;;2.10;1.13;;;40.10;36.50;;;;;;5022038;28;20426;-87
2022/07/02 10:34:55;;;;;;;2.43;1.10;;;39.40;33.60;;;;;;5041052;28;20427;-88
2022/07/02 10:37:21;;;;;;;2.53;1.07;;;37.70;33.60;;;;;;5020908;28;20422;-89
2022/07/02 10:39:46;;;;;;;2.30;0.90;;;36.00;35.30;;;;;;5022585;28;20407;-88
2022/07/02 10:42:12;;;;;;;2.60;1.03;;;34.80;36.70;;;;;;5023461;28;20438;-89
2022/07/02 10:44:40;;;;;;;4.73;1.07;;;34.40;36.80;;;;;;5021945;28;20298;-88
2022/07/02 10:47:25;;;;;;;3.70;1.20;;;34.60;40.30;;;;;;5024759;28;20195;-88
2022/07/02 10:49:58;;;;;;;7.70;1.40;;;34.20;42.60;;;;;;5022538;28;20423;-89
2022/07/02 10:52:56;;;;;;;2.43;1.43;;;34.00;41.80;;;;;;5021881;28;20491;-88
2022/07/02 10:55:29;;;;;;;4.30;1.33;;;32.90;37.10;;;;;;4969285;28;20502;-87
2022/07/02 10:57:59;;;;;;;2.97;1.40;;;32.30;42.40;;;;;;5015053;28;20532;-87
2022/07/02 11:00:27;;;;;;;2.33;1.00;;;31.70;40.60;;;;;;5014521;28;20410;-87
2022/07/02 11:02:52;;;;;;;4.33;1.07;;;31.40;41.70;;;;;;5023752;28;20453;-88
2022/07/02 11:05:18;;;;;;;2.40;1.30;;;31.20;42.10;;;;;;5026947;28;20467;-87
2022/07/02 11:07:44;;;;;;;2.43;1.10;;;30.90;43.10;;;;;;5025840;28;20195;-86
2022/07/02 11:10:10;;;;;;;2.33;0.90;;;31.00;44.20;;;;;;5024402;28;20230;-87
2022/07/02 11:12:59;;;;;;;2.67;1.07;;;31.00;43.00;;;;;;5022982;28;20185;-88
2022/07/02 11:15:37;;;;;;;4.87;1.43;;;31.10;43.80;;;;;;5021702;28;20234;-88
2022/07/02 11:18:07;;;;;;;2.90;1.40;;;31.60;45.10;;;;;;5022556;28;20454;-86
2022/07/02 11:20:35;;;;;;;2.90;0.90;;;32.30;44.70;;;;;;5024883;28;20506;-86
2022/07/02 11:23:00;;;;;;;2.93;1.07;;;31.50;41.00;;;;;;5043496;28;20454;-87
2022/07/02 11:25:29;;;;;;;2.13;0.80;;;31.30;42.20;;;;;;5040525;28;20447;-87
2022/07/02 11:27:59;;;;;;;2.40;1.00;;;30.80;41.70;;;;;;5022935;28;20196;-88
2022/07/02 11:30:30;;;;;;;2.53;0.90;;;30.70;41.90;;;;;;5040726;28;20431;-86
2022/07/02 11:32:56;;;;;;;2.60;0.80;;;30.60;42.10;;;;;;5025246;28;20557;-87
2022/07/02 11:35:22;;;;;;;2.37;0.90;;;30.50;43.40;;;;;;5022938;28;20521;-86
2022/07/02 11:37:48;;;;;;;2.10;0.90;;;30.10;42.80;;;;;;5022981;28;20181;-86
2022/07/02 11:40:24;;;;;;;3.30;1.87;;;29.60;41.40;;;;;;5025777;28;20191;-87
2022/07/02 11:42:50;;;;;;;2.10;0.87;;;29.10;43.70;;;;;;5025968;28;20234;-87
2022/07/02 11:45:15;;;;;;;2.50;1.13;;;29.00;43.30;;;;;;5023031;28;20443;-87
2022/07/02 11:47:49;;;;;;;2.00;0.87;;;29.00;40.90;;;;;;5026449;28;20187;-87
2022/07/02 11:50:31;;;;;;;2.23;0.90;;;29.00;42.10;;;;;;5023798;28;20183;-87
2022/07/02 11:52:58;;;;;;;3.37;1.00;;;28.90;44.20;;;;;;5024627;28;21127;-87
2022/07/02 11:55:24;;;;;;;2.00;0.90;;;28.90;46.20;;;;;;5027605;28;20542;-86
2022/07/02 11:57:51;;;;;;;2.50;0.97;;;28.70;42.50;;;;;;5024887;28;21020;-88
2022/07/02 12:00:18;;;;;;;3.10;1.30;;;28.50;42.10;;;;;;5022296;28;20229;-85
2022/07/02 12:02:44;;;;;;;2.50;1.20;;;28.50;43.30;;;;;;5022783;28;20423;-87
2022/07/02 12:05:28;;;;;;;2.40;0.90;;;28.70;45.10;;;;;;5023509;28;20465;-87
2022/07/02 12:07:53;;;;;;;2.67;1.00;;;28.80;45.50;;;;;;5030103;28;20184;-88
2022/07/02 12:10:19;;;;;;;2.00;0.80;;;28.80;44.70;;;;;;5029902;28;20415;-88
2022/07/02 12:12:44;;;;;;;2.57;1.10;;;28.60;44.20;;;;;;5023093;28;20298;-82
2022/07/02 12:15:11;;;;;;;4.00;1.00;;;28.50;44.70;;;;;;5035678;28;20220;-86
2022/07/02 12:17:46;;;;;;;2.30;1.07;;;28.30;44.10;;;;;;5031093;28;20176;-87
2022/07/02 12:20:12;;;;;;;2.30;1.10;;;28.30;44.90;;;;;;5021759;28;20967;-86
2022/07/02 12:22:38;;;;;;;2.23;0.83;;;28.20;44.30;;;;;;4979822;28;20421;-87
2022/07/02 12:25:05;;;;;;;2.17;1.00;;;28.30;45.30;;;;;;4997425;28;20300;-87
2022/07/02 12:27:34;;;;;;;2.30;1.00;;;28.30;44.50;;;;;;4999280;28;20451;-88
2022/07/02 12:30:11;;;;;;;2.63;1.20;;;28.40;44.70;;;;;;5015987;28;20514;-87
2022/07/02 12:32:38;;;;;;;2.10;1.10;;;28.40;44.70;;;;;;5022206;28;20443;-88
2022/07/02 12:35:07;;;;;;;2.50;0.87;;;28.40;45.20;;;;;;5013466;28;20442;-88
2022/07/02 12:37:34;;;;;;;2.30;0.97;;;28.40;45.50;;;;;;5011689;28;20853;-89
2022/07/02 12:40:09;;;;;;;3.90;1.10;;;28.40;45.20;;;;;;5013867;28;20435;-87
2022/07/02 12:42:47;;;;;;;1.90;0.90;;;28.70;46.50;;;;;;5013168;28;20434;-88
2022/07/02 12:45:32;;;;;;;2.00;1.03;;;28.80;45.90;;;;;;5012401;28;20447;-88
2022/07/02 12:48:03;;;;;;;2.63;1.30;;;28.80;47.70;;;;;;5008930;28;20423;-87
2022/07/02 12:50:31;;;;;;;3.03;1.00;;;28.70;46.80;;;;;;5014304;28;20427;-85
2022/07/02 12:53:05;;;;;;;3.23;1.13;;;28.60;47.10;;;;;;5015153;28;20451;-85
2022/07/02 12:55:34;;;;;;;2.10;1.00;;;28.70;49.00;;;;;;5051102;22;20864;-82